Time;durP1;ratioP1;P1;durP2;ratioP2;P2;SDS_P1;SDS_P2;PMS_P1;PMS_P2;Temp;Humidity;BMP_temperature;BMP_pressure;BME280_temperature;BME280_humidity;BME280_pressure;Samples;Min_cycle;Max_cycle;Signal;HPM_P1;HPM_P2
2022/06/23 00:00:29;;;;;;;;;22.00;21.60;;;;;25.58;53.17;100451.78;2074079;28;47369;-58
2022/06/23 00:01:41;;;;;;;;;19.20;19.20;;;;;25.55;52.98;100450.19;2072961;28;47599;-57
2022/06/23 00:02:42;;;;;;;;;19.60;18.20;;;;;25.53;52.90;100442.16;2078906;28;47508;-57
2022/06/23 00:03:45;;;;;;;;;19.25;19.25;;;;;25.51;52.73;100443.28;2081659;28;47206;-55
2022/06/23 00:04:48;;;;;;;;;21.60;21.60;;;;;25.51;53.23;100448.72;2079317;28;47848;-56
2022/06/23 00:05:57;;;;;;;;;21.20;21.20;;;;;25.48;53.18;100441.69;2085134;28;47636;-56
2022/06/23 00:07:15;;;;;;;;;22.20;22.20;;;;;25.46;53.33;100442.84;2083541;28;47528;-56
2022/06/23 00:08:15;;;;;;;;;22.20;21.40;;;;;25.43;54.12;100446.69;2083891;28;47646;-56
2022/06/23 00:09:34;;;;;;;;;18.00;18.00;;;;;25.40;54.38;100441.50;2078841;28;46997;-55
2022/06/23 00:10:40;;;;;;;;;22.00;22.00;;;;;25.39;53.83;100449.78;2082816;28;47922;-57
2022/06/23 00:11:48;;;;;;;;;21.20;21.20;;;;;25.38;54.22;100456.22;2079890;28;47438;-57
2022/06/23 00:12:49;;;;;;;;;24.20;24.00;;;;;25.35;54.56;100443.78;2086694;28;47795;-56
2022/06/23 00:13:50;;;;;;;;;24.80;24.80;;;;;25.34;54.93;100446.63;2084464;28;47738;-57
2022/06/23 00:14:59;;;;;;;;;29.40;26.00;;;;;25.32;55.06;100448.63;2083357;28;47770;-54
2022/06/23 00:16:00;;;;;;;;;25.80;25.80;;;;;25.27;55.42;100449.00;2087213;28;47451;-58
2022/06/23 00:17:22;;;;;;;;;19.40;19.00;;;;;25.23;55.61;100442.13;2084249;28;48261;-56
2022/06/23 00:18:26;;;;;;;;;29.80;28.00;;;;;25.19;56.09;100433.41;2083221;28;47472;-56
2022/06/23 00:19:26;;;;;;;;;24.80;22.80;;;;;25.19;55.84;100429.84;2080483;28;48190;-58
2022/06/23 00:20:32;;;;;;;;;24.75;23.00;;;;;25.18;55.75;100444.41;2085679;28;47896;-56
2022/06/23 00:21:34;;;;;;;;;10.60;10.60;;;;;25.17;55.77;100438.13;2080334;28;47667;-58
2022/06/23 00:22:38;;;;;;;;;26.00;24.20;;;;;25.18;55.87;100441.69;2079604;28;47830;-58
2022/06/23 00:23:43;;;;;;;;;26.40;26.40;;;;;25.17;55.91;100440.84;2080601;28;46424;-56
2022/06/23 00:24:48;;;;;;;;;23.20;22.20;;;;;25.18;55.93;100436.25;2086409;28;47594;-56
2022/06/23 00:25:56;;;;;;;;;24.20;24.00;;;;;25.17;56.21;100440.84;2088152;28;48107;-55
2022/06/23 00:26:56;;;;;;;;;21.40;21.40;;;;;25.19;56.20;100440.69;2088744;28;47463;-56
2022/06/23 00:27:59;;;;;;;;;28.00;24.00;;;;;25.18;56.26;100447.13;2091548;28;47210;-56
2022/06/23 00:29:18;;;;;;;;;25.40;22.80;;;;;25.18;55.89;100441.69;2088823;28;47693;-58
2022/06/23 00:30:22;;;;;;;;;24.20;24.20;;;;;25.17;55.64;100440.84;2085798;28;47248;-57
2022/06/23 00:31:31;;;;;;;;;22.40;22.00;;;;;25.18;55.73;100442.56;2083190;28;47532;-56
2022/06/23 00:32:32;;;;;;;;;21.20;19.60;;;;;25.16;55.76;100446.41;2084427;28;47843;-56
2022/06/23 00:33:41;;;;;;;;;23.25;23.25;;;;;25.15;55.90;100448.22;2086423;28;47639;-55
2022/06/23 00:35:04;;;;;;;;;24.00;23.20;;;;;25.15;55.94;100447.38;2085729;28;47298;-57
2022/06/23 00:36:32;;;;;;;;;19.60;19.60;;;;;25.15;56.29;100450.09;2080900;28;47779;-57
2022/06/23 00:37:33;;;;;;;;;24.00;23.60;;;;;25.14;56.41;100441.06;2080940;28;47707;-57
2022/06/23 00:38:39;;;;;;;;;22.25;22.25;;;;;25.14;55.88;100440.22;2089358;28;47716;-56
2022/06/23 00:39:50;;;;;;;;;23.20;21.40;;;;;25.13;55.89;100439.34;2095333;28;47419;-57
2022/06/23 00:40:51;;;;;;;;;25.00;23.20;;;;;25.14;56.06;100442.94;2087820;28;47345;-58
2022/06/23 00:41:52;;;;;;;;;31.80;27.00;;;;;25.12;56.28;100443.06;2087088;28;47410;-57
2022/06/23 00:43:01;;;;;;;;;25.75;23.75;;;;;25.13;55.79;100441.22;2083848;28;47862;-57
2022/06/23 00:44:06;;;;;;;;;24.20;22.40;;;;;25.11;55.89;100430.50;2085909;28;47532;-58
2022/06/23 00:45:09;;;;;;;;;22.40;22.40;;;;;25.09;56.27;100429.75;2083859;28;47851;-56
2022/06/23 00:46:21;;;;;;;;;23.00;23.00;;;;;25.08;55.94;100435.34;2094595;28;48369;-57
2022/06/23 00:47:29;;;;;;;;;23.40;23.40;;;;;25.04;56.20;100431.16;2091601;28;47533;-57
2022/06/23 00:48:48;;;;;;;;;20.40;20.40;;;;;25.04;55.90;100433.88;2084433;28;48176;-56
2022/06/23 00:49:59;;;;;;;;;24.00;23.40;;;;;25.02;56.48;100434.00;2085720;28;47615;-57
2022/06/23 00:51:11;;;;;;;;;24.40;23.40;;;;;25.01;56.18;100429.56;2085954;28;47442;-58
2022/06/23 00:52:31;;;;;;;;;20.80;20.80;;;;;25.01;56.42;100435.00;2084002;28;48122;-57
2022/06/23 00:53:50;;;;;;;;;22.60;22.60;;;;;24.99;56.23;100423.38;2081856;28;47916;-57
2022/06/23 00:54:55;;;;;;;;;23.60;23.00;;;;;24.97;56.18;100428.06;2086548;28;48170;-56
2022/06/23 00:56:16;;;;;;;;;21.80;21.80;;;;;24.95;56.62;100425.50;2085580;28;47789;-56
2022/06/23 00:57:26;;;;;;;;;22.40;22.40;;;;;24.93;56.16;100424.78;2081799;28;47872;-56
2022/06/23 00:58:43;;;;;;;;;23.20;22.20;;;;;24.92;56.47;100424.91;2085210;28;47829;-58
2022/06/23 00:59:50;;;;;;;;;21.20;20.40;;;;;24.88;56.03;100421.56;2083851;28;47672;-58
2022/06/23 01:00:55;;;;;;;;;22.00;21.60;;;;;24.89;56.35;100422.44;2084462;28;47636;-57
2022/06/23 01:02:03;;;;;;;;;20.60;19.60;;;;;24.87;56.40;100419.00;2084296;28;47254;-57
2022/06/23 01:03:15;;;;;;;;;26.80;26.20;;;;;24.86;56.37;100420.84;2084228;28;47515;-56
2022/06/23 01:04:34;;;;;;;;;23.80;22.40;;;;;24.85;56.55;100421.00;2078327;28;48241;-57
2022/06/23 01:05:44;;;;;;;;;22.40;21.40;;;;;24.84;56.42;100416.56;2085353;28;47947;-60
2022/06/23 01:07:16;;;;;;;;;22.60;21.40;;;;;24.82;56.75;100416.69;2079760;28;47593;-57
2022/06/23 01:08:39;;;;;;;;;25.20;25.20;;;;;24.80;57.00;100407.81;2081153;28;47458;-57
2022/06/23 01:09:45;;;;;;;;;21.20;20.60;;;;;24.80;56.45;100410.53;2087817;28;48040;-56
2022/06/23 01:11:09;;;;;;;;;24.60;24.00;;;;;24.81;56.42;100408.69;2081867;28;48135;-58
2022/06/23 01:12:22;;;;;;;;;20.80;20.80;;;;;24.81;56.87;100408.69;2083301;28;47939;-56
2022/06/23 01:13:47;;;;;;;;;22.40;22.20;;;;;24.81;56.40;100408.69;2090708;28;47482;-57
2022/06/23 01:14:57;;;;;;;;;21.20;21.20;;;;;24.81;56.62;100401.41;2090117;28;46758;-58
2022/06/23 01:16:26;;;;;;;;;23.80;22.80;;;;;24.80;56.51;100405.13;2082528;28;47523;-58
2022/06/23 01:17:33;;;;;;;;;22.80;22.00;;;;;24.79;56.31;100410.69;2083580;28;47371;-57
2022/06/23 01:18:42;;;;;;;;;24.80;24.80;;;;;24.78;56.54;100407.09;2086510;28;47426;-58
2022/06/23 01:19:58;;;;;;;;;24.20;24.20;;;;;24.78;56.72;100412.53;2083685;28;47626;-57
2022/06/23 01:21:24;;;;;;;;;25.20;23.60;;;;;24.77;56.54;100415.34;2082019;28;47649;-57
2022/06/23 01:22:25;;;;;;;;;22.60;22.40;;;;;24.75;56.98;100415.47;2069461;28;48044;-57
2022/06/23 01:23:34;;;;;;;;;23.00;22.00;;;;;24.74;56.77;100408.34;2069068;28;46571;-57
2022/06/23 01:24:57;;;;;;;;;24.00;23.80;;;;;24.72;56.70;100412.19;2077794;28;48071;-55
2022/06/23 01:26:19;;;;;;;;;22.80;22.80;;;;;24.69;56.94;100399.75;2071628;28;47588;-56
2022/06/23 01:27:40;;;;;;;;;23.80;23.60;;;;;24.70;56.96;100408.75;2076904;28;47136;-57
2022/06/23 01:28:42;;;;;;;;;23.40;23.40;;;;;24.68;57.00;100413.44;2077465;28;47676;-55
2022/06/23 01:30:10;;;;;;;;;25.20;22.80;;;;;24.66;56.89;100410.88;2078012;28;47628;-57
2022/06/23 01:31:23;;;;;;;;;25.60;25.60;;;;;24.65;57.13;100412.72;2061847;28;48321;-56
2022/06/23 01:32:35;;;;;;;;;26.00;24.60;;;;;24.63;57.21;100413.81;2062490;28;47664;-55
2022/06/23 01:33:54;;;;;;;;;24.40;23.80;;;;;24.62;57.03;100409.38;2055774;28;47687;-55
2022/06/23 01:35:03;;;;;;;;;23.20;22.80;;;;;24.61;57.17;100411.25;2061072;28;47771;-57
2022/06/23 01:36:11;;;;;;;;;21.60;21.60;;;;;24.58;57.31;100403.38;2061577;28;47656;-55
2022/06/23 01:37:28;;;;;;;;;26.40;26.40;;;;;24.56;57.65;100410.78;2054923;28;47649;-58
2022/06/23 01:38:59;;;;;;;;;24.60;24.60;;;;;24.54;58.14;100396.50;2054939;28;48177;-55
2022/06/23 01:40:11;;;;;;;;;27.40;27.40;;;;;24.49;57.69;100396.00;2061400;28;47201;-55
2022/06/23 01:41:31;;;;;;;;;26.00;26.00;;;;;24.46;57.80;100393.56;2061276;28;47518;-56
2022/06/23 01:42:40;;;;;;;;;25.40;25.40;;;;;24.42;58.11;100392.09;2061568;28;47916;-58
2022/06/23 01:43:51;;;;;;;;;28.20;27.60;;;;;24.40;58.16;100387.81;2061809;28;47582;-57
2022/06/23 01:45:04;;;;;;;;;28.40;28.00;;;;;24.36;58.14;100392.59;2061685;28;47684;-57
2022/06/23 01:46:24;;;;;;;;;29.60;26.80;;;;;24.31;58.34;100411.13;2061767;28;47961;-56
2022/06/23 01:47:32;;;;;;;;;27.20;25.80;;;;;24.28;58.22;100389.66;2061140;28;48061;-56
2022/06/23 01:48:51;;;;;;;;;23.40;23.40;;;;;24.27;58.36;100394.22;2061692;28;47841;-58
2022/06/23 01:50:03;;;;;;;;;26.80;26.60;;;;;24.24;58.50;100396.31;2061743;28;47598;-57
2022/06/23 01:51:03;;;;;;;;;25.00;25.00;;;;;24.20;58.43;100395.72;2061849;28;47826;-58
2022/06/23 01:52:13;;;;;;;;;30.25;28.25;;;;;24.17;58.73;100395.13;2061351;28;47493;-55
2022/06/23 01:53:16;;;;;;;;;29.80;27.80;;;;;24.15;58.67;100392.53;2057738;28;47392;-57
2022/06/23 01:54:27;;;;;;;;;30.20;28.80;;;;;24.14;58.76;100403.50;2062102;28;47978;-57
2022/06/23 01:55:47;;;;;;;;;25.60;25.60;;;;;24.09;58.81;100395.75;2061694;28;47958;-57
2022/06/23 01:56:54;;;;;;;;;27.20;27.00;;;;;24.08;58.88;100400.31;2060882;28;47504;-56
2022/06/23 01:58:07;;;;;;;;;25.00;25.00;;;;;24.06;58.93;100402.28;2059170;28;48251;-56
2022/06/23 01:59:25;;;;;;;;;27.80;27.00;;;;;24.04;58.99;100398.00;2061059;28;46622;-56
2022/06/23 02:00:25;;;;;;;;;26.20;24.00;;;;;24.02;59.14;100394.56;2063303;28;47556;-55
2022/06/23 02:01:46;;;;;;;;;29.50;28.50;;;;;23.99;59.44;100395.66;2061708;28;47661;-56
2022/06/23 02:03:10;;;;;;;;;28.60;28.00;;;;;23.97;58.86;100391.34;2063286;28;47483;-55
2022/06/23 02:04:25;;;;;;;;;29.80;28.60;;;;;23.94;59.33;100395.19;2062082;28;47506;-56
2022/06/23 02:05:51;;;;;;;;;26.00;26.00;;;;;23.91;59.36;100395.44;2061996;28;47301;-56
2022/06/23 02:07:24;;;;;;;;;26.20;26.20;;;;;23.89;59.51;100388.44;2059848;28;47991;-56
2022/06/23 02:08:49;;;;;;;;;26.40;26.40;;;;;23.86;59.49;100391.38;2051698;28;47574;-56
2022/06/23 02:09:58;;;;;;;;;24.20;23.60;;;;;23.82;59.73;100389.91;2068366;28;47779;-57
2022/06/23 02:11:13;;;;;;;;;26.80;26.80;;;;;23.80;59.51;100387.31;2070730;28;48252;-56
2022/06/23 02:12:20;;;;;;;;;26.60;25.60;;;;;23.77;59.90;100390.28;2068830;28;46974;-57
2022/06/23 02:13:29;;;;;;;;;25.20;25.20;;;;;23.75;60.07;100390.38;2070255;28;47729;-56
2022/06/23 02:15:10;;;;;;;;;23.60;22.80;;;;;23.72;59.82;100389.78;2070493;28;45659;-56
2022/06/23 02:16:24;;;;;;;;;30.40;28.00;;;;;23.69;60.13;100387.34;2069738;28;48332;-58
2022/06/23 02:17:24;;;;;;;;;26.80;26.80;;;;;23.68;60.54;100393.75;2070545;28;47312;-57
2022/06/23 02:18:32;;;;;;;;;27.00;27.00;;;;;23.67;60.29;100392.03;2074357;28;47287;-57
2022/06/23 02:19:38;;;;;;;;;30.00;29.00;;;;;23.66;60.42;100385.75;2068835;28;47528;-56
2022/06/23 02:20:43;;;;;;;;;29.80;29.00;;;;;23.66;60.50;100385.75;2067542;28;47667;-56
2022/06/23 02:22:17;;;;;;;;;29.20;27.40;;;;;23.65;60.66;100385.88;2070340;28;47943;-57
2022/06/23 02:23:28;;;;;;;;;22.00;22.00;;;;;23.64;60.44;100382.31;2068644;28;47552;-57
2022/06/23 02:24:44;;;;;;;;;28.20;27.40;;;;;23.66;60.51;100387.59;2070836;28;47380;-54
2022/06/23 02:25:52;;;;;;;;;27.60;26.20;;;;;23.65;60.27;100386.72;2070798;28;45510;-57
2022/06/23 02:26:59;;;;;;;;;30.20;28.60;;;;;23.63;60.57;100383.28;2070265;28;47643;-55
2022/06/23 02:28:06;;;;;;;;;28.60;28.60;;;;;23.63;60.46;100393.25;2070380;28;47996;-55
2022/06/23 02:29:21;;;;;;;;;25.20;24.80;;;;;23.62;60.54;100388.81;2065075;28;48046;-56
2022/06/23 02:30:33;;;;;;;;;27.20;26.80;;;;;23.62;60.62;100388.81;2070311;28;47689;-56
2022/06/23 02:31:59;;;;;;;;;25.20;24.80;;;;;23.61;60.36;100387.09;2070550;28;47512;-56
2022/06/23 02:33:19;;;;;;;;;26.20;24.80;;;;;23.57;60.67;100389.16;2053785;28;46898;-57
2022/06/23 02:34:30;;;;;;;;;28.20;28.20;;;;;23.57;60.62;100391.00;2054698;28;47695;-56
2022/06/23 02:35:43;;;;;;;;;28.00;27.80;;;;;23.55;60.76;100376.72;2050710;28;48175;-58
2022/06/23 02:37:05;;;;;;;;;33.60;31.00;;;;;23.55;60.84;100380.31;2052858;28;47487;-57
2022/06/23 02:38:35;;;;;;;;;30.80;29.60;;;;;23.53;60.93;100385.00;2053019;28;47555;-54
2022/06/23 02:39:49;;;;;;;;;28.80;27.20;;;;;23.53;60.67;100386.84;2052809;28;47586;-57
2022/06/23 02:41:03;;;;;;;;;28.40;28.40;;;;;23.53;61.03;100381.41;2052489;28;47743;-57
2022/06/23 02:42:21;;;;;;;;;30.80;28.80;;;;;23.52;61.06;100379.69;2050932;28;47845;-55
2022/06/23 02:43:41;;;;;;;;;24.80;24.00;;;;;23.51;61.32;100380.69;2053094;28;47945;-56
2022/06/23 02:44:44;;;;;;;;;26.80;25.80;;;;;23.49;61.19;100376.22;2056891;28;47589;-56
2022/06/23 02:46:12;;;;;;;;;27.80;27.20;;;;;23.50;61.33;100377.09;2059843;28;47779;-56
2022/06/23 02:47:50;;;;;;;;;30.60;30.00;;;;;23.52;61.43;100385.13;2054669;28;47631;-57
2022/06/23 02:49:20;;;;;;;;;32.00;27.80;;;;;23.53;61.32;100381.41;2055424;28;47592;-56
2022/06/23 02:50:48;;;;;;;;;28.80;28.80;;;;;23.54;61.44;100384.00;2059428;28;48075;-56
2022/06/23 02:52:13;;;;;;;;;25.60;25.60;;;;;23.55;61.37;100372.19;2054950;28;46668;-54
2022/06/23 02:53:47;;;;;;;;;22.40;20.20;;;;;23.59;61.32;100383.66;2057367;28;47986;-56
2022/06/23 02:55:09;;;;;;;;;27.80;27.80;;;;;23.61;61.44;100373.53;2059513;28;47749;-56
2022/06/23 02:56:34;;;;;;;;;26.40;24.80;;;;;23.63;61.66;100374.28;2051340;28;47855;-56
2022/06/23 02:57:53;;;;;;;;;29.20;28.60;;;;;23.63;61.59;100374.28;2055719;28;47633;-56
2022/06/23 02:59:01;;;;;;;;;30.00;29.20;;;;;23.61;61.67;100374.41;2054248;28;47837;-56
2022/06/23 03:00:12;;;;;;;;;29.80;29.20;;;;;23.60;61.56;100374.53;2056852;28;46928;-56
2022/06/23 03:01:23;;;;;;;;;28.20;27.40;;;;;23.59;61.68;100370.97;2058767;28;48175;-57
2022/06/23 03:02:41;;;;;;;;;27.80;25.60;;;;;23.59;61.82;100375.53;2054944;28;47455;-56
2022/06/23 03:03:56;;;;;;;;;24.60;24.40;;;;;23.59;61.63;100370.97;2058856;28;47863;-57
2022/06/23 03:05:05;;;;;;;;;26.20;26.20;;;;;23.59;61.88;100376.38;2057625;28;48086;-56
2022/06/23 03:06:24;;;;;;;;;27.00;26.20;;;;;23.60;61.98;100378.09;2062970;28;47735;-57
2022/06/23 03:07:44;;;;;;;;;23.80;23.80;;;;;23.61;61.94;100379.81;2063598;28;47820;-56
2022/06/23 03:08:58;;;;;;;;;24.20;24.00;;;;;23.62;62.18;100377.97;2062595;28;47427;-56
2022/06/23 03:10:14;;;;;;;;;25.00;24.60;;;;;23.63;61.92;100380.59;2063288;28;46838;-53
2022/06/23 03:11:51;;;;;;;;;25.60;24.20;;;;;23.65;62.22;100389.44;2082515;28;46820;-56
2022/06/23 03:12:52;;;;;;;;;26.20;24.00;;;;;23.66;61.92;100387.59;2089033;28;47656;-56
2022/06/23 03:13:58;;;;;;;;;17.80;17.80;;;;;23.66;61.91;100384.88;2088864;28;47605;-58
2022/06/23 03:15:10;;;;;;;;;15.80;15.80;;;;;23.68;62.11;100389.19;2088653;28;47632;-56
2022/06/23 03:16:23;;;;;;;;;15.80;14.80;;;;;23.70;61.87;100389.06;2091536;28;47339;-56
2022/06/23 03:17:35;;;;;;;;;13.60;13.60;;;;;23.71;61.84;100394.34;2089732;28;47294;-56
2022/06/23 03:18:50;;;;;;;;;11.80;11.80;;;;;23.73;61.78;100395.06;2088853;28;47522;-54
2022/06/23 03:20:06;;;;;;;;;12.00;11.20;;;;;23.74;61.54;100391.38;2083985;28;47583;-56
2022/06/23 03:21:17;;;;;;;;;10.00;10.00;;;;;23.75;61.27;100398.53;2089022;28;47720;-57
2022/06/23 03:22:24;;;;;;;;;7.40;7.40;;;;;23.76;61.27;100402.13;2083983;28;47130;-55
2022/06/23 03:23:57;;;;;;;;;4.00;4.00;;;;;23.77;61.45;100399.28;2088880;28;47535;-56
2022/06/23 03:25:32;;;;;;;;;4.75;4.75;;;;;23.78;61.15;100400.13;2071302;28;47232;-56
2022/06/23 03:26:37;;;;;;;;;6.60;6.60;;;;;23.78;61.02;100406.41;2055157;28;47728;-54
2022/06/23 03:27:51;;;;;;;;;7.75;7.75;;;;;23.79;61.06;100404.56;2052141;28;47507;-56
2022/06/23 03:29:07;;;;;;;;;6.20;6.00;;;;;23.80;61.00;100405.44;2047066;28;47814;-57
2022/06/23 03:30:21;;;;;;;;;9.60;8.40;;;;;23.79;60.93;100401.88;2049797;28;47746;-57
2022/06/23 03:31:37;;;;;;;;;6.40;6.40;;;;;23.79;60.88;100404.56;2054288;28;47561;-55
2022/06/23 03:32:45;;;;;;;;;6.80;6.80;;;;;23.80;60.69;100410.84;2051454;28;47775;-56
2022/06/23 03:33:54;;;;;;;;;6.20;6.20;;;;;23.80;60.67;100406.28;2047458;28;47625;-57
2022/06/23 03:35:23;;;;;;;;;6.80;6.00;;;;;23.80;60.79;100400.88;2055129;28;47588;-57
2022/06/23 03:36:43;;;;;;;;;5.60;5.60;;;;;23.81;60.67;100402.59;2054163;28;47264;-55
2022/06/23 03:38:04;;;;;;;;;4.25;4.25;;;;;23.81;60.91;100404.44;2053722;28;47537;-56
2022/06/23 03:42:32;;;;;;;;;5.25;5.25;;;;;23.78;60.83;100406.41;2054205;28;48077;-58
2022/06/23 03:43:41;;;;;;;;;3.50;3.50;;;;;23.77;60.72;100414.69;2053861;28;48109;-57
2022/06/23 03:45:19;;;;;;;;;3.50;3.25;;;;;23.77;60.63;100415.53;2054261;28;48034;-57
2022/06/23 03:46:49;;;;;;;;;3.25;3.25;;;;;23.77;60.64;100423.66;2046841;28;47268;-55
2022/06/23 03:48:01;;;;;;;;;6.50;5.75;;;;;23.78;60.38;100429.94;2033571;28;47670;-57
2022/06/23 03:49:16;;;;;;;;;5.00;5.00;;;;;23.79;60.57;100428.97;2036757;28;47746;-56
2022/06/23 03:50:46;;;;;;;;;4.75;4.25;;;;;23.78;60.64;100427.25;2037706;28;47925;-56
2022/06/23 03:51:59;;;;;;;;;6.00;5.00;;;;;23.77;60.51;100433.66;2029506;28;47587;-56
2022/06/23 03:53:23;;;;;;;;;3.00;3.00;;;;;23.76;60.70;100430.06;2030444;28;48152;-57
2022/06/23 03:54:28;;;;;;;;;4.25;4.25;;;;;23.76;60.42;100435.50;2030311;28;47771;-56
2022/06/23 03:55:38;;;;;;;;;5.50;4.00;;;;;23.77;60.31;100433.66;2030376;28;47790;-55
2022/06/23 03:56:59;;;;;;;;;4.75;4.75;;;;;23.77;60.28;100444.47;2030273;28;47777;-56
2022/06/23 03:58:10;;;;;;;;;5.00;5.00;;;;;23.77;60.56;100441.78;2030341;28;47656;-57
2022/06/23 03:59:45;;;;;;;;;5.50;5.50;;;;;23.76;60.59;100445.47;2029034;28;47699;-55
2022/06/23 04:00:51;;;;;;;;;5.75;4.75;;;;;23.75;60.42;100444.59;2029922;28;47848;-56
2022/06/23 04:02:02;;;;;;;;;3.00;3.00;;;;;23.75;60.31;100443.72;2029249;28;47731;-57
2022/06/23 04:03:18;;;;;;;;;3.00;3.00;;;;;23.74;60.48;100444.72;2034690;28;47742;-57
2022/06/23 04:04:57;;;;;;;;;5.00;4.00;;;;;23.74;59.95;100447.41;2046095;28;47792;-56
2022/06/23 04:06:31;;;;;;;;;3.00;3.00;;;;;23.74;59.89;100450.13;2055857;28;46015;-56
2022/06/23 04:07:45;;;;;;;;;4.75;4.75;;;;;23.71;60.09;100448.53;2054596;28;45942;-56
2022/06/23 04:08:58;;;;;;;;;3.25;2.00;;;;;23.72;60.20;100449.41;2060547;28;47619;-56
2022/06/23 04:10:11;;;;;;;;;4.75;3.75;;;;;23.71;60.17;100443.13;2052754;28;47836;-55
2022/06/23 04:12:37;;;;;;;;;4.00;3.25;;;;;23.71;59.76;100448.53;2056496;28;47733;-57
2022/06/23 04:13:38;;;;;;;;;2.75;2.75;;;;;23.71;59.96;100451.25;2057992;28;47879;-58
2022/06/23 04:14:53;;;;;;;;;4.00;3.25;;;;;23.70;59.81;100449.53;2058092;28;47399;-57
2022/06/23 04:16:00;;;;;;;;;4.25;3.50;;;;;23.71;59.91;100445.81;2057007;28;47471;-57
2022/06/23 04:17:11;;;;;;;;;5.00;3.25;;;;;23.71;60.25;100451.25;2058627;28;47556;-57
2022/06/23 04:18:25;;;;;;;;;3.75;3.75;;;;;23.71;59.97;100447.69;2062400;28;47677;-57
2022/06/23 04:19:31;;;;;;;;;5.00;5.00;;;;;23.72;60.10;100457.53;2061043;28;46638;-59
2022/06/23 04:20:48;;;;;;;;;3.00;3.00;;;;;23.72;59.89;100454.81;2055254;28;47847;-58
2022/06/23 04:21:57;;;;;;;;;3.75;3.75;;;;;23.72;59.92;100452.09;2058743;28;47569;-56
2022/06/23 04:23:07;;;;;;;;;3.00;3.00;;;;;23.72;59.85;100455.69;2055506;28;47553;-56
2022/06/23 04:24:16;;;;;;;;;5.75;3.00;;;;;23.71;59.62;100453.97;2046597;28;47326;-56
2022/06/23 04:25:22;;;;;;;;;3.75;3.75;;;;;23.70;59.64;100456.78;2049373;28;47686;-57
2022/06/23 04:26:30;;;;;;;;;3.00;3.00;;;;;23.69;59.77;100455.94;2069984;28;47875;-57
2022/06/23 04:27:41;;;;;;;;;4.25;4.25;;;;;23.69;59.92;100460.50;2064310;28;47630;-58
2022/06/23 04:28:45;;;;;;;;;4.25;4.25;;;;;23.68;59.69;100461.47;2066311;28;48008;-58
2022/06/23 04:29:51;;;;;;;;;3.25;3.25;;;;;23.68;59.69;100456.91;2080477;28;47584;-59
2022/06/23 04:30:55;;;;;;;;;4.50;4.50;;;;;23.68;59.58;100462.34;2085554;28;48046;-58
2022/06/23 04:32:13;;;;;;;;;4.50;4.00;;;;;23.68;59.79;100456.06;2088477;28;48086;-59
2022/06/23 04:33:18;;;;;;;;;4.25;4.25;;;;;23.68;59.78;100467.75;2086002;28;47301;-59
2022/06/23 04:34:31;;;;;;;;;4.00;4.00;;;;;23.67;59.72;100463.31;2089677;28;48405;-55
2022/06/23 04:35:36;;;;;;;;;5.00;4.00;;;;;23.68;60.00;100465.03;2088818;28;46160;-57
2022/06/23 04:36:43;;;;;;;;;4.00;3.75;;;;;23.68;59.52;100461.47;2084019;28;48000;-58
2022/06/23 04:38:10;;;;;;;;;5.00;4.25;;;;;23.66;59.67;100469.72;2087434;28;48044;-58
2022/06/23 04:39:41;;;;;;;;;4.00;3.50;;;;;23.67;59.78;100462.47;2085985;28;47365;-57
2022/06/23 04:40:42;;;;;;;;;3.50;3.25;;;;;23.69;59.63;100468.63;2082062;28;47470;-56
2022/06/23 04:41:50;;;;;;;;;3.67;3.00;;;;;23.68;59.81;100466.91;2088392;28;47831;-57
2022/06/23 04:43:14;;;;;;;;;3.25;3.25;;;;;23.68;59.74;100461.47;2088335;28;47574;-56
2022/06/23 04:44:24;;;;;;;;;5.75;5.75;;;;;23.66;59.52;100467.03;2088650;28;47205;-57
2022/06/23 04:45:40;;;;;;;;;2.50;2.50;;;;;23.67;59.50;100463.31;2083872;28;47766;-57
2022/06/23 04:46:46;;;;;;;;;3.50;3.50;;;;;23.66;59.62;100458.91;2081020;28;47804;-58
2022/06/23 04:47:49;;;;;;;;;4.00;2.75;;;;;23.66;59.60;100455.31;2089638;28;48100;-58
2022/06/23 04:49:01;;;;;;;;;3.25;3.25;;;;;23.66;59.61;100466.16;2088516;28;47957;-57
2022/06/23 04:50:30;;;;;;;;;5.00;5.00;;;;;23.67;59.63;100462.47;2088565;28;46911;-58
2022/06/23 04:51:38;;;;;;;;;4.75;4.50;;;;;23.67;59.66;100467.88;2080959;28;47776;-55
2022/06/23 04:52:44;;;;;;;;;5.00;3.75;;;;;23.66;59.40;100467.03;2088551;28;47495;-56
2022/06/23 04:53:57;;;;;;;;;5.25;5.25;;;;;23.66;59.63;100475.16;2088492;28;47333;-56
2022/06/23 04:55:25;;;;;;;;;5.75;5.75;;;;;23.66;59.55;100472.44;2088326;28;47881;-56
2022/06/23 04:56:37;;;;;;;;;2.25;2.25;;;;;23.65;59.28;100475.28;2087137;28;47637;-54
2022/06/23 04:57:46;;;;;;;;;6.00;6.00;;;;;23.64;59.31;100470.84;2084978;28;47574;-56
2022/06/23 04:58:55;;;;;;;;;6.25;5.25;;;;;23.64;59.57;100471.72;2088452;28;47586;-56
2022/06/23 05:00:00;;;;;;;;;6.25;4.25;;;;;23.64;59.74;100477.13;2089954;28;47052;-56
2022/06/23 05:01:00;;;;;;;;;6.00;5.00;;;;;23.64;59.58;100471.72;2088871;28;47690;-57
2022/06/23 05:02:17;;;;;;;;;4.00;3.67;;;;;23.63;59.37;100475.41;2088559;28;47239;-56
2022/06/23 05:03:47;;;;;;;;;5.25;5.25;;;;;23.63;59.81;100471.81;2088724;28;47915;-57
2022/06/23 05:05:00;;;;;;;;;6.25;4.00;;;;;23.61;59.54;100474.63;2088612;28;47738;-56
2022/06/23 05:06:07;;;;;;;;;4.50;3.75;;;;;23.61;59.68;100473.78;2087814;28;47917;-58
2022/06/23 05:07:24;;;;;;;;;4.00;3.50;;;;;23.61;59.63;100463.81;2083914;28;47647;-57
2022/06/23 05:08:30;;;;;;;;;2.75;2.75;;;;;23.62;59.54;100464.66;2085422;28;47484;-56
2022/06/23 05:09:38;;;;;;;;;5.25;3.75;;;;;23.63;59.90;100469.97;2084468;28;47911;-56
2022/06/23 05:10:50;;;;;;;;;3.50;3.50;;;;;23.63;59.82;100469.09;2083231;28;47720;-57
2022/06/23 05:11:55;;;;;;;;;3.50;3.50;;;;;23.64;59.37;100469.00;2085038;28;50819;-56
2022/06/23 05:13:04;;;;;;;;;3.75;2.25;;;;;23.65;59.76;100464.44;2086691;28;47432;-58
2022/06/23 05:14:15;;;;;;;;;3.75;2.75;;;;;23.65;59.72;100468.00;2087924;28;47383;-58
2022/06/23 05:15:25;;;;;;;;;5.75;4.25;;;;;23.67;59.78;100473.31;2083493;28;47574;-56
2022/06/23 05:16:28;;;;;;;;;5.00;5.00;;;;;23.67;59.66;100476.88;2086149;28;47608;-56
2022/06/23 05:17:35;;;;;;;;;3.25;3.00;;;;;23.68;59.47;100475.03;2084543;28;48026;-57
2022/06/23 05:18:53;;;;;;;;;3.00;3.00;;;;;23.69;59.70;100474.91;2085573;28;47734;-54
2022/06/23 05:19:58;;;;;;;;;5.00;3.50;;;;;23.71;59.53;100478.34;2093904;28;47644;-56
2022/06/23 05:21:04;;;;;;;;;4.25;4.25;;;;;23.72;59.52;100479.19;2096308;28;48154;-57
2022/06/23 05:22:25;;;;;;;;;4.00;3.50;;;;;23.74;59.35;100474.50;2082859;28;47590;-57
2022/06/23 05:23:41;;;;;;;;;3.50;3.50;;;;;23.76;59.33;100478.00;2083068;28;47813;-56
2022/06/23 05:24:45;;;;;;;;;4.00;4.00;;;;;23.77;59.48;100479.72;2084232;28;47970;-58
2022/06/23 05:25:50;;;;;;;;;3.00;3.00;;;;;23.78;59.36;100479.59;2084748;28;47959;-57
2022/06/23 05:26:59;;;;;;;;;3.75;3.75;;;;;23.79;59.26;100483.16;2087468;28;48222;-57
2022/06/23 05:28:06;;;;;;;;;4.00;3.75;;;;;23.80;59.31;100482.16;2080167;28;47653;-57
2022/06/23 05:29:21;;;;;;;;;4.75;4.00;;;;;23.81;59.52;100477.59;2085545;28;47669;-57
2022/06/23 05:30:28;;;;;;;;;4.75;4.00;;;;;23.83;59.43;100489.19;2085577;28;45444;-58
2022/06/23 05:31:33;;;;;;;;;3.00;2.75;;;;;23.83;59.68;100486.47;2079145;28;47884;-57
2022/06/23 05:33:00;;;;;;;;;2.50;2.50;;;;;23.85;59.36;100489.91;2088149;28;47358;-59
2022/06/23 05:34:20;;;;;;;;;4.25;4.25;;;;;23.85;59.20;100488.06;2079846;28;47991;-57
2022/06/23 05:35:31;;;;;;;;;2.50;2.50;;;;;23.87;58.99;100493.34;2079220;28;47521;-58
2022/06/23 05:36:43;;;;;;;;;4.25;3.50;;;;;23.87;59.17;100487.94;2079923;28;45906;-55
2022/06/23 05:37:49;;;;;;;;;4.00;4.00;;;;;23.87;58.76;100491.50;2078436;28;47604;-57
2022/06/23 05:38:55;;;;;;;;;4.00;4.00;;;;;23.89;59.18;100486.00;2077992;28;47658;-57
2022/06/23 05:40:20;;;;;;;;;4.75;3.50;;;;;23.89;59.29;100491.41;2078416;28;47701;-58
2022/06/23 05:41:40;;;;;;;;;3.00;3.00;;;;;23.89;58.88;100484.16;2079319;28;47331;-56